Terminal Aerodrome Forecast
Issued by NWS Sterling, VA

Current Version | Previous Version | Graphics & Text | Print | Product List | Glossary On
Versions: 1 2 3 4 5 6 7 8 9 10 11 12 13 14 15 16 17 18 19 20 21 22 23 24
000
FTUS41 KLWX 091500 AAB
TAFDCA
TAF AMD
KDCA 091500Z 0915/1018 02005KT 2SM -SN BR OVC015
     FM091800 36005KT 3SM -SN OVC020
     FM092100 32004KT 5SM -SN OVC030
     FM100000 VRB03KT P6SM BKN060
     FM100500 28010G18KT P6SM BKN080=

USA.gov is the U.S. government's official web portal to all federal, state and local government web resources and services.